Mc Clellan Airfield
KMCC : now visible

Airfield :











YOU CAN JOIN US ON...

 
LOGIN :

Register | Disclaimer

   EN    FR    IT 

 









Legend :    VFR   Marginal VFR   IFR   Intensive IFR   Very Intensive IFR
Visi :
Ceiling :
>= 8 km
>= 3000ft
5 to 8 km
1000 to 3000 ft
1500m to 5 km
500 to 1000 ft
800 to 1500m
200 to 500 ft
< 800m
< 200 ft
Symbols :   Thunderstorms  Fog  Heavy snow  Heavy precipitations  Wind > 20 kt






- Airport Elevation : 77 ft


KMCC - Mc Clellan

CURRENT METAR :
  • 301735Z AUTO 16007KT 10SM CLR 28/13 A2986 RMK AO2

EXPIRED METARs :
  • 301715Z AUTO 16008KT 10SM CLR 27/13 A2986 RMK AO2
  • 301655Z AUTO 19008KT 10SM CLR 26/13 A2986 RMK AO2
  • 301635Z AUTO 15008KT 10SM CLR 25/13 A2986 RMK AO2
  • 301615Z AUTO 16008KT 10SM CLR 25/13 A2986 RMK AO2
  • 301555Z AUTO 15008KT 10SM CLR 24/13 A2985 RMK AO2
  • 301535Z AUTO 16006KT 10SM CLR 24/13 A2985 RMK AO2
  • 301515Z AUTO 14008KT 10SM CLR 23/13 A2984 RMK AO2
  • 301455Z AUTO 13007KT 9SM CLR 23/13 A2984 RMK AO2

TAF KMCC
Valid from the 30 at 12:00 until the 31 at 12:00 UTC


301120Z 3012/3112 17007KT P6SM SKC
FM302200 22006KT P6SM SKC
FM310300 20011KT P6SM SKC
FM310400 17008KT P6SM SKC
KZOA FIR / North America



MET'MAP, your aeronautical weather chart ! - Copyright ORBIFLY December 2007 - Disclaimer

ORBIFLY MET'MAP TEAM :

Programming & Development : Alexandra Zaïnal
Concept & original design : Baudouin d'Aumeries
Assistance for programming : Marc-Olivier Méhu
Technical & hardware support : Manuel Goepfert

Contact : metmap@orbifly.com




SOURCES & CREDITS :

   NOAA       Earth
Advisory